Liverpool Express — DDSD2 — position and weather

sailwx.info

Track history (hours):
 
Tides and Currents Weather Stations Pressure Air Temp Water Temp Dewpoint Dewpoint Depression Visibility Wind Speed Wind Dir Waves Ship Positions

Liverpool Express

Last reported at 2016-Aug-14 12:11 UTC. Time now 2016-Aug-28 18:57 UTC.
Position N 41°09' W 029°39'.
Warning: this ship's position is 14 days out of date.

Length 281 m; draft 12.2 m.

Type: Ship. MMSI: 218025000.

Date/timePositionNaut miles runAvg speedWind from/ knotsBaromVisibWave heightAir tempDewpointWater temp
2016-Aug-14 12:11N 41°09' W 029°39'1616.8
2016-Aug-14 11:14N 41°17' W 029°21'1116.6
2016-Aug-14 10:33N 41°22' W 029°07'1816.8
2016-Aug-14 09:28N 41°31' W 028°46'2116.7
2016-Aug-14 08:14N 41°41' W 028°22'1816.9
2016-Aug-14 07:10N 41°50' W 028°01'1117.1
2016-Aug-14 06:31N 41°56' W 027°48'  
2016-Aug-12 02:11N 49°06' W 008°43'1117.6
2016-Aug-12 01:33N 49°08' W 008°26'2117.5
2016-Aug-12 00:21N 49°12' W 007°55'3117.1
2016-Aug-11 22:33N 49°17' W 007°08'1717.0
2016-Aug-11 21:33N 49°20' W 006°43'1717.1
2016-Aug-11 20:34N 49°23' W 006°17'1717.0
2016-Aug-11 19:33N 49°25' W 005°51'1716.9
2016-Aug-11 18:34N 49°28' W 005°25'1716.5
2016-Aug-11 17:34N 49°30' W 005°00'1716.6
2016-Aug-11 16:33N 49°36' W 004°36'1716.4
2016-Aug-11 15:33N 49°41' W 004°12'1616.4
2016-Aug-11 14:34N 49°47' W 003°49'1615.9
2016-Aug-11 13:34N 49°53' W 003°26'1515.4
2016-Aug-11 12:34N 49°58' W 003°03'1515.3
2016-Aug-11 11:34N 50°03' W 002°40'1615.6
2016-Aug-11 10:30N 50°08' W 002°17'1515.9
2016-Aug-11 09:34N 50°12' W 001°54'2017.1
2016-Aug-11 08:22N 50°16' W 001°23'1517.8
2016-Aug-11 07:33N 50°20' W 001°00'2117.7
2016-Aug-11 06:20N 50°26' W 000°28'1316.9
2016-Aug-11 05:33N 50°29' W 000°08'1616.4
2016-Aug-11 04:33N 50°33' E 000°17'1615.6
2016-Aug-11 03:33N 50°39' E 000°41'1815.4
2016-Aug-11 02:22N 50°49' E 001°04'1316.0
2016-Aug-11 01:33N 50°57' E 001°20'1817.9
2016-Aug-11 00:34N 51°10' E 001°40'1817.5
2016-Aug-10 23:34N 51°24' E 001°57'1616.0
2016-Aug-10 22:34N 51°21' E 002°22'1514.5
2016-Aug-10 21:33N 51°24' E 002°45'1515.2
2016-Aug-10 20:34N 51°24' E 003°09'1616.2
2016-Aug-10 19:33N 51°26' E 003°35'1211.8
2016-Aug-10 18:34N 51°21' E 003°52'8 8.1
2016-Aug-10 17:33N 51°22' E 004°05'8 7.9
2016-Aug-10 16:33N 51°19' E 004°16'1 1.0
2016-Aug-10 15:31N 51°18' E 004°16'0 0.0
2016-Aug-10 14:25N 51°18' E 004°16'0 0.0
2016-Aug-10 13:31N 51°18' E 004°16'0 0.0
2016-Aug-10 12:31N 51°18' E 004°16'0 0.0
2016-Aug-10 11:33N 51°18' E 004°16'0 0.0
2016-Aug-10 10:33N 51°18' E 004°16'0 0.0
2016-Aug-10 09:33N 51°18' E 004°16'0 0.0
2016-Aug-10 08:31N 51°18' E 004°16'0 0.0
2016-Aug-10 07:28N 51°18' E 004°16'0 0.0
2016-Aug-10 06:28N 51°18' E 004°16'0 0.0
2016-Aug-10 05:32N 51°18' E 004°16'0 0.0
2016-Aug-10 04:32N 51°18' E 004°16'0 0.0
2016-Aug-10 03:26N 51°18' E 004°16'0 0.0
2016-Aug-10 02:32N 51°18' E 004°16'0 0.0
2016-Aug-10 01:32N 51°18' E 004°16'0 0.0
2016-Aug-10 00:33N 51°18' E 004°16'0 0.0
2016-Aug-09 23:33N 51°18' E 004°16'0 0.0
2016-Aug-09 22:33N 51°18' E 004°16'1 0.6
2016-Aug-09 21:33N 51°18' E 004°16'6 6.4
2016-Aug-09 20:34N 51°22' E 004°09'9 8.7
2016-Aug-09 19:34N 51°22' E 003°55'1211.7
2016-Aug-09 18:33N 51°26' E 003°37'8 8.3
2016-Aug-09 17:34N 51°24' E 003°24'1010.1
2016-Aug-09 16:33N 51°24' E 003°08'1616.1
2016-Aug-09 15:33N 51°22' E 002°42'5 5.3
2016-Aug-09 14:33N 51°22' E 002°34'10 9.0
2016-Aug-09 13:28N 51°19' E 002°19'1314.1
2016-Aug-09 12:33N 51°23' E 001°59'1111.3
2016-Aug-09 11:33N 51°33' E 001°50'1111.5
2016-Aug-09 10:33N 51°44' E 001°44'1110.7
2016-Aug-09 09:34N 51°54' E 001°39'1 0.5
2016-Aug-09 08:34N 51°54' E 001°40'0 0.1
2016-Aug-09 07:33N 51°54' E 001°40'0 0.0
2016-Aug-09 05:33N 51°54' E 001°40'0 0.2
2016-Aug-09 04:33N 51°54' E 001°40'0 0.1
2016-Aug-09 03:33N 51°54' E 001°40'0 0.1
2016-Aug-09 02:33N 51°54' E 001°40'0 0.1
2016-Aug-09 01:33N 51°54' E 001°39'0 0.0
2016-Aug-09 00:33N 51°54' E 001°39'2 2.0
2016-Aug-08 23:33N 51°52' E 001°38'1212.3
2016-Aug-08 22:33N 51°41' E 001°27'1918.5
2016-Aug-08 21:33N 51°31' E 001°03'1716.6
2016-Aug-08 20:34N 51°30' E 000°36'4 3.8
2016-Aug-08 19:34N 51°30' E 000°30'0 0.0
2016-Aug-08 18:33N 51°30' E 000°30'0 0.0
2016-Aug-08 17:33N 51°30' E 000°30'0 0.0
2016-Aug-08 16:34N 51°30' E 000°30'0 0.0
2016-Aug-08 15:33N 51°30' E 000°30'0 0.0
2016-Aug-08 14:33N 51°30' E 000°30'0 0.0
2016-Aug-08 13:33N 51°30' E 000°30'0 0.0
2016-Aug-08 12:33N 51°30' E 000°30'0 0.0
2016-Aug-08 11:34N 51°30' E 000°30'0 0.0
2016-Aug-08 10:34N 51°30' E 000°30'0 0.0
2016-Aug-08 09:33N 51°30' E 000°30'0 0.0
2016-Aug-08 08:34N 51°30' E 000°30'0 0.0
2016-Aug-08 07:34N 51°30' E 000°30'0 0.0
2016-Aug-08 06:34N 51°30' E 000°30'0 0.0
2016-Aug-08 05:33N 51°30' E 000°30'2 1.8
2016-Aug-08 04:33N 51°30' E 000°33'1616.0
2016-Aug-08 03:33N 51°29' E 000°59'1716.8
2016-Aug-08 02:33N 51°38' E 001°21'1616.4
2016-Aug-08 01:34N 51°51' E 001°39'5 5.4
2016-Aug-08 00:34N 51°51' E 001°47'1312.9
2016-Aug-07 23:34N 51°54' E 002°08'1817.7
2016-Aug-07 22:33N 52°05' E 002°30'1716.8
2016-Aug-07 21:33N 52°16' E 002°51'1817.8
2016-Aug-07 20:33N 52°27' E 003°13'1817.8
2016-Aug-07 19:33N 52°40' E 003°35'2017.3
2016-Aug-07 18:22N 52°56' E 003°56'1517.3
2016-Aug-07 17:29N 53°06' E 004°15'1918.2
2016-Aug-07 16:25N 53°22' E 004°33'1618.6
2016-Aug-07 15:33N 53°33' E 004°52'1919.4
2016-Aug-07 14:34N 53°40' E 005°23'1918.7
2016-Aug-07 13:34N 53°45' E 005°53'1818.2
2016-Aug-07 12:33N 53°50' E 006°23'1817.5
2016-Aug-07 11:34N 53°55' E 006°51'1717.3
2016-Aug-07 10:34N 53°59' E 007°20'1716.8
2016-Aug-07 09:34N 54°02' E 007°48'1615.8
2016-Aug-07 08:33N 54°00' E 008°15'1616.3
2016-Aug-07 07:33N 53°55' E 008°41'1615.6
2016-Aug-07 06:33N 53°53' E 009°07'2412.1
2016-Aug-07 04:33N 53°36' E 009°36'9 9.0
2016-Aug-07 03:33N 53°33' E 009°50'3 2.9
2016-Aug-07 02:32N 53°32' E 009°55'0 0.0
2016-Aug-07 01:32N 53°32' E 009°55'0 0.0
2016-Aug-07 00:32N 53°32' E 009°55'0 0.0
2016-Aug-06 23:32N 53°32' E 009°55'0 0.0
2016-Aug-06 22:32N 53°32' E 009°55'0 0.0
2016-Aug-06 21:32N 53°32' E 009°55'0 0.0
2016-Aug-06 20:32N 53°32' E 009°55'0 0.0
2016-Aug-06 19:32N 53°32' E 009°55'0 0.0
2016-Aug-06 18:32N 53°32' E 009°55'0 0.0
2016-Aug-06 17:32N 53°32' E 009°55'0 0.0
2016-Aug-06 16:32N 53°32' E 009°55'0 0.0
2016-Aug-06 15:32N 53°32' E 009°55'0 0.0
2016-Aug-06 14:32N 53°32' E 009°55'0 0.0
2016-Aug-06 13:32N 53°32' E 009°55'0 0.0
2016-Aug-06 12:33N 53°32' E 009°55'0 0.0
2016-Aug-06 11:33N 53°32' E 009°55'0 0.0
2016-Aug-06 10:33N 53°32' E 009°55'0 0.0
2016-Aug-06 09:33N 53°32' E 009°55'0 0.0
2016-Aug-06 08:33N 53°32' E 009°55'0 0.0
2016-Aug-06 07:33N 53°32' E 009°55'0 0.0
2016-Aug-06 04:31N 53°32' E 009°55'0 0.0
2016-Aug-06 03:31N 53°32' E 009°55'0 0.0
2016-Aug-06 02:31N 53°32' E 009°55'0 0.0
2016-Aug-06 01:31N 53°32' E 009°55'0 0.0
2016-Aug-05 22:33N 53°32' E 009°55'0 0.0
2016-Aug-05 20:32N 53°32' E 009°55'0 0.0
2016-Aug-05 19:33N 53°32' E 009°55'0 0.0
2016-Aug-05 18:33N 53°32' E 009°55'0 0.0
2016-Aug-05 17:32N 53°32' E 009°55'0 0.0
2016-Aug-05 16:33N 53°32' E 009°55'0 0.0
2016-Aug-05 15:33N 53°32' E 009°55'0 0.0
2016-Aug-05 14:33N 53°32' E 009°55'4 3.7
2016-Aug-05 13:33N 53°33' E 009°49'1212.5
2016-Aug-05 12:34N 53°39' E 009°31'1616.0
2016-Aug-05 11:34N 53°52' E 009°16'1616.0
2016-Aug-05 10:33N 53°50' E 008°49'1716.4
2016-Aug-05 09:31N 53°59' E 008°24'1414.2
2016-Aug-05 08:33N 53°59' E 008°01'2121.2
2016-Aug-05 07:34N 53°54' E 007°26'2221.8
2016-Aug-05 06:34N 53°50' E 006°49'4221.2
2016-Aug-05 04:34N 53°37' E 005°41'2120.8
2016-Aug-05 03:33N 53°30' E 005°08'2120.1
2016-Aug-05 02:32N 53°18' E 004°40'2120.9
2016-Aug-05 01:32N 53°00' E 004°22'2020.7
2016-Aug-05 00:33N 52°43' E 004°05'2020.3
2016-Aug-04 23:33N 52°24' E 003°53'1918.6
2016-Aug-04 22:34N 52°05' E 003°54'9 9.3
2016-Aug-04 21:33N 51°59' E 004°05'2 2.3
2016-Aug-04 20:33N 51°57' E 004°03'0 0.0
2016-Aug-04 19:33N 51°57' E 004°03'0 0.0
2016-Aug-04 18:33N 51°57' E 004°03'0 0.0
2016-Aug-04 17:33N 51°57' E 004°03'0 0.0
2016-Aug-04 16:34N 51°57' E 004°03'0 0.0
2016-Aug-04 15:33N 51°57' E 004°03'0 0.0
2016-Aug-04 14:34N 51°57' E 004°03'0 0.0
2016-Aug-04 13:33N 51°57' E 004°03'0 0.0
2016-Aug-04 12:33N 51°57' E 004°03'  
Track history (hours):
 
Tides and Currents Weather Stations Pressure Air Temp Water Temp Dewpoint Dewpoint Depression Visibility Wind Speed Wind Dir Waves Ship Positions

Liverpool Express

Last reported at 2016-Aug-14 12:11 UTC. Time now 2016-Aug-28 18:57 UTC.
Position N 41°09' W 029°39'.
Warning: this ship's position is 14 days out of date.

Length 281 m; draft 12.2 m.

Type: Ship. MMSI: 218025000.

Date/timePositionNaut miles runAvg speedWind from/ knotsBaromVisibWave heightAir tempDewpointWater temp
2016-Aug-14 12:11N 41°09' W 029°39'1616.8
2016-Aug-14 11:14N 41°17' W 029°21'1116.6
2016-Aug-14 10:33N 41°22' W 029°07'1816.8
2016-Aug-14 09:28N 41°31' W 028°46'2116.7
2016-Aug-14 08:14N 41°41' W 028°22'1816.9
2016-Aug-14 07:10N 41°50' W 028°01'1117.1
2016-Aug-14 06:31N 41°56' W 027°48'  
2016-Aug-12 02:11N 49°06' W 008°43'1117.6
2016-Aug-12 01:33N 49°08' W 008°26'2117.5
2016-Aug-12 00:21N 49°12' W 007°55'3117.1
2016-Aug-11 22:33N 49°17' W 007°08'1717.0
2016-Aug-11 21:33N 49°20' W 006°43'1717.1
2016-Aug-11 20:34N 49°23' W 006°17'1717.0
2016-Aug-11 19:33N 49°25' W 005°51'1716.9
2016-Aug-11 18:34N 49°28' W 005°25'1716.5
2016-Aug-11 17:34N 49°30' W 005°00'1716.6
2016-Aug-11 16:33N 49°36' W 004°36'1716.4
2016-Aug-11 15:33N 49°41' W 004°12'1616.4
2016-Aug-11 14:34N 49°47' W 003°49'1615.9
2016-Aug-11 13:34N 49°53' W 003°26'1515.4
2016-Aug-11 12:34N 49°58' W 003°03'1515.3
2016-Aug-11 11:34N 50°03' W 002°40'1615.6
2016-Aug-11 10:30N 50°08' W 002°17'1515.9
2016-Aug-11 09:34N 50°12' W 001°54'2017.1
2016-Aug-11 08:22N 50°16' W 001°23'1517.8
2016-Aug-11 07:33N 50°20' W 001°00'2117.7
2016-Aug-11 06:20N 50°26' W 000°28'1316.9
2016-Aug-11 05:33N 50°29' W 000°08'1616.4
2016-Aug-11 04:33N 50°33' E 000°17'1615.6
2016-Aug-11 03:33N 50°39' E 000°41'1815.4
2016-Aug-11 02:22N 50°49' E 001°04'1316.0
2016-Aug-11 01:33N 50°57' E 001°20'1817.9
2016-Aug-11 00:34N 51°10' E 001°40'1817.5
2016-Aug-10 23:34N 51°24' E 001°57'1616.0
2016-Aug-10 22:34N 51°21' E 002°22'1514.5
2016-Aug-10 21:33N 51°24' E 002°45'1515.2
2016-Aug-10 20:34N 51°24' E 003°09'1616.2
2016-Aug-10 19:33N 51°26' E 003°35'1211.8
2016-Aug-10 18:34N 51°21' E 003°52'8 8.1
2016-Aug-10 17:33N 51°22' E 004°05'8 7.9
2016-Aug-10 16:33N 51°19' E 004°16'1 1.0
2016-Aug-10 15:31N 51°18' E 004°16'0 0.0
2016-Aug-10 14:25N 51°18' E 004°16'0 0.0
2016-Aug-10 13:31N 51°18' E 004°16'0 0.0
2016-Aug-10 12:31N 51°18' E 004°16'0 0.0
2016-Aug-10 11:33N 51°18' E 004°16'0 0.0
2016-Aug-10 10:33N 51°18' E 004°16'0 0.0
2016-Aug-10 09:33N 51°18' E 004°16'0 0.0
2016-Aug-10 08:31N 51°18' E 004°16'0 0.0
2016-Aug-10 07:28N 51°18' E 004°16'0 0.0
2016-Aug-10 06:28N 51°18' E 004°16'0 0.0
2016-Aug-10 05:32N 51°18' E 004°16'0 0.0
2016-Aug-10 04:32N 51°18' E 004°16'0 0.0
2016-Aug-10 03:26N 51°18' E 004°16'0 0.0
2016-Aug-10 02:32N 51°18' E 004°16'0 0.0
2016-Aug-10 01:32N 51°18' E 004°16'0 0.0
2016-Aug-10 00:33N 51°18' E 004°16'0 0.0
2016-Aug-09 23:33N 51°18' E 004°16'0 0.0
2016-Aug-09 22:33N 51°18' E 004°16'1 0.6
2016-Aug-09 21:33N 51°18' E 004°16'6 6.4
2016-Aug-09 20:34N 51°22' E 004°09'9 8.7
2016-Aug-09 19:34N 51°22' E 003°55'1211.7
2016-Aug-09 18:33N 51°26' E 003°37'8 8.3
2016-Aug-09 17:34N 51°24' E 003°24'1010.1
2016-Aug-09 16:33N 51°24' E 003°08'1616.1
2016-Aug-09 15:33N 51°22' E 002°42'5 5.3
2016-Aug-09 14:33N 51°22' E 002°34'10 9.0
2016-Aug-09 13:28N 51°19' E 002°19'1314.1
2016-Aug-09 12:33N 51°23' E 001°59'1111.3
2016-Aug-09 11:33N 51°33' E 001°50'1111.5
2016-Aug-09 10:33N 51°44' E 001°44'1110.7
2016-Aug-09 09:34N 51°54' E 001°39'1 0.5
2016-Aug-09 08:34N 51°54' E 001°40'0 0.1
2016-Aug-09 07:33N 51°54' E 001°40'0 0.0
2016-Aug-09 05:33N 51°54' E 001°40'0 0.2
2016-Aug-09 04:33N 51°54' E 001°40'0 0.1
2016-Aug-09 03:33N 51°54' E 001°40'0 0.1
2016-Aug-09 02:33N 51°54' E 001°40'0 0.1
2016-Aug-09 01:33N 51°54' E 001°39'0 0.0
2016-Aug-09 00:33N 51°54' E 001°39'2 2.0
2016-Aug-08 23:33N 51°52' E 001°38'1212.3
2016-Aug-08 22:33N 51°41' E 001°27'1918.5
2016-Aug-08 21:33N 51°31' E 001°03'1716.6
2016-Aug-08 20:34N 51°30' E 000°36'4 3.8
2016-Aug-08 19:34N 51°30' E 000°30'0 0.0
2016-Aug-08 18:33N 51°30' E 000°30'0 0.0
2016-Aug-08 17:33N 51°30' E 000°30'0 0.0
2016-Aug-08 16:34N 51°30' E 000°30'0 0.0
2016-Aug-08 15:33N 51°30' E 000°30'0 0.0
2016-Aug-08 14:33N 51°30' E 000°30'0 0.0
2016-Aug-08 13:33N 51°30' E 000°30'0 0.0
2016-Aug-08 12:33N 51°30' E 000°30'0 0.0
2016-Aug-08 11:34N 51°30' E 000°30'0 0.0
2016-Aug-08 10:34N 51°30' E 000°30'0 0.0
2016-Aug-08 09:33N 51°30' E 000°30'0 0.0
2016-Aug-08 08:34N 51°30' E 000°30'0 0.0
2016-Aug-08 07:34N 51°30' E 000°30'0 0.0
2016-Aug-08 06:34N 51°30' E 000°30'0 0.0
2016-Aug-08 05:33N 51°30' E 000°30'2 1.8
2016-Aug-08 04:33N 51°30' E 000°33'1616.0
2016-Aug-08 03:33N 51°29' E 000°59'1716.8
2016-Aug-08 02:33N 51°38' E 001°21'1616.4
2016-Aug-08 01:34N 51°51' E 001°39'5 5.4
2016-Aug-08 00:34N 51°51' E 001°47'1312.9
2016-Aug-07 23:34N 51°54' E 002°08'1817.7
2016-Aug-07 22:33N 52°05' E 002°30'1716.8
2016-Aug-07 21:33N 52°16' E 002°51'1817.8
2016-Aug-07 20:33N 52°27' E 003°13'1817.8
2016-Aug-07 19:33N 52°40' E 003°35'2017.3
2016-Aug-07 18:22N 52°56' E 003°56'1517.3
2016-Aug-07 17:29N 53°06' E 004°15'1918.2
2016-Aug-07 16:25N 53°22' E 004°33'1618.6
2016-Aug-07 15:33N 53°33' E 004°52'1919.4
2016-Aug-07 14:34N 53°40' E 005°23'1918.7
2016-Aug-07 13:34N 53°45' E 005°53'1818.2
2016-Aug-07 12:33N 53°50' E 006°23'1817.5
2016-Aug-07 11:34N 53°55' E 006°51'1717.3
2016-Aug-07 10:34N 53°59' E 007°20'1716.8
2016-Aug-07 09:34N 54°02' E 007°48'1615.8
2016-Aug-07 08:33N 54°00' E 008°15'1616.3
2016-Aug-07 07:33N 53°55' E 008°41'1615.6
2016-Aug-07 06:33N 53°53' E 009°07'2412.1
2016-Aug-07 04:33N 53°36' E 009°36'9 9.0
2016-Aug-07 03:33N 53°33' E 009°50'3 2.9
2016-Aug-07 02:32N 53°32' E 009°55'0 0.0
2016-Aug-07 01:32N 53°32' E 009°55'0 0.0
2016-Aug-07 00:32N 53°32' E 009°55'0 0.0
2016-Aug-06 23:32N 53°32' E 009°55'0 0.0
2016-Aug-06 22:32N 53°32' E 009°55'0 0.0
2016-Aug-06 21:32N 53°32' E 009°55'0 0.0
2016-Aug-06 20:32N 53°32' E 009°55'0 0.0
2016-Aug-06 19:32N 53°32' E 009°55'0 0.0
2016-Aug-06 18:32N 53°32' E 009°55'0 0.0
2016-Aug-06 17:32N 53°32' E 009°55'0 0.0
2016-Aug-06 16:32N 53°32' E 009°55'0 0.0
2016-Aug-06 15:32N 53°32' E 009°55'0 0.0
2016-Aug-06 14:32N 53°32' E 009°55'0 0.0
2016-Aug-06 13:32N 53°32' E 009°55'0 0.0
2016-Aug-06 12:33N 53°32' E 009°55'0 0.0
2016-Aug-06 11:33N 53°32' E 009°55'0 0.0
2016-Aug-06 10:33N 53°32' E 009°55'0 0.0
2016-Aug-06 09:33N 53°32' E 009°55'0 0.0
2016-Aug-06 08:33N 53°32' E 009°55'0 0.0
2016-Aug-06 07:33N 53°32' E 009°55'0 0.0
2016-Aug-06 04:31N 53°32' E 009°55'0 0.0
2016-Aug-06 03:31N 53°32' E 009°55'0 0.0
2016-Aug-06 02:31N 53°32' E 009°55'0 0.0
2016-Aug-06 01:31N 53°32' E 009°55'0 0.0
2016-Aug-05 22:33N 53°32' E 009°55'0 0.0
2016-Aug-05 20:32N 53°32' E 009°55'0 0.0
2016-Aug-05 19:33N 53°32' E 009°55'0 0.0
2016-Aug-05 18:33N 53°32' E 009°55'0 0.0
2016-Aug-05 17:32N 53°32' E 009°55'0 0.0
2016-Aug-05 16:33N 53°32' E 009°55'0 0.0
2016-Aug-05 15:33N 53°32' E 009°55'0 0.0
2016-Aug-05 14:33N 53°32' E 009°55'4 3.7
2016-Aug-05 13:33N 53°33' E 009°49'1212.5
2016-Aug-05 12:34N 53°39' E 009°31'1616.0
2016-Aug-05 11:34N 53°52' E 009°16'1616.0
2016-Aug-05 10:33N 53°50' E 008°49'1716.4
2016-Aug-05 09:31N 53°59' E 008°24'1414.2
2016-Aug-05 08:33N 53°59' E 008°01'2121.2
2016-Aug-05 07:34N 53°54' E 007°26'2221.8
2016-Aug-05 06:34N 53°50' E 006°49'4221.2
2016-Aug-05 04:34N 53°37' E 005°41'2120.8
2016-Aug-05 03:33N 53°30' E 005°08'2120.1
2016-Aug-05 02:32N 53°18' E 004°40'2120.9
2016-Aug-05 01:32N 53°00' E 004°22'2020.7
2016-Aug-05 00:33N 52°43' E 004°05'2020.3
2016-Aug-04 23:33N 52°24' E 003°53'1918.6
2016-Aug-04 22:34N 52°05' E 003°54'9 9.3
2016-Aug-04 21:33N 51°59' E 004°05'2 2.3
2016-Aug-04 20:33N 51°57' E 004°03'0 0.0
2016-Aug-04 19:33N 51°57' E 004°03'0 0.0
2016-Aug-04 18:33N 51°57' E 004°03'0 0.0
2016-Aug-04 17:33N 51°57' E 004°03'0 0.0
2016-Aug-04 16:34N 51°57' E 004°03'0 0.0
2016-Aug-04 15:33N 51°57' E 004°03'0 0.0
2016-Aug-04 14:34N 51°57' E 004°03'0 0.0
2016-Aug-04 13:33N 51°57' E 004°03'0 0.0
2016-Aug-04 12:33N 51°57' E 004°03'  

Dump ship's entire track history